N750XL KFLL-KHOU
Flight info
| Callsign | N750XL |
|---|---|
| Flight time | 2h 18m |
| Altitude | 43000 |
| Route | BNICE2 DOLIE Y280 LEV BAYYY5 |
| Aircraft | C750/M-SBDE3FGHRWXY/S |
Departure
| Time | 2026-05-05 20:26 |
|---|---|
| Airport | Fort Lauderdale Hollywood International Airport (KFLL) |
Arrival
| Time | 2026-05-05 22:44 |
|---|---|
| Airport | William P. Hobby Airport (KHOU) |
| Time | Latitude | Longitude | Altitude | Speed | Heading |
|---|---|---|---|---|---|
| 2026-05-05 20:06 | 26.07116 | -80.15498 | 28 ft | 0 kts | 180° |
| 2026-05-05 20:19 | 26.07115 | -80.15492 | 19 ft | 2 kts | 103° |
| 2026-05-05 20:19 | 26.07148 | -80.15493 | 18 ft | 8 kts | 347° |
| 2026-05-05 20:19 | 26.07209 | -80.15510 | 18 ft | 9 kts | 343° |
| 2026-05-05 20:19 | 26.07270 | -80.15543 | 16 ft | 11 kts | 327° |
| 2026-05-05 20:20 | 26.07334 | -80.15603 | 16 ft | 12 kts | 315° |
| 2026-05-05 20:20 | 26.07395 | -80.15668 | 16 ft | 12 kts | 316° |
| 2026-05-05 20:20 | 26.07449 | -80.15730 | 16 ft | 11 kts | 315° |
| 2026-05-05 20:20 | 26.07492 | -80.15793 | 16 ft | 10 kts | 281° |
| 2026-05-05 20:21 | 26.07494 | -80.15879 | 18 ft | 12 kts | 270° |
| 2026-05-05 20:21 | 26.07494 | -80.15965 | 20 ft | 10 kts | 270° |
| 2026-05-05 20:21 | 26.07495 | -80.16037 | 21 ft | 11 kts | 270° |
| 2026-05-05 20:21 | 26.07496 | -80.16145 | 22 ft | 15 kts | 270° |
| 2026-05-05 20:22 | 26.07496 | -80.16256 | 21 ft | 14 kts | 270° |
| 2026-05-05 20:22 | 26.07497 | -80.16366 | 20 ft | 14 kts | 270° |
| 2026-05-05 20:22 | 26.07497 | -80.16474 | 21 ft | 14 kts | 270° |
| 2026-05-05 20:22 | 26.07498 | -80.16595 | 20 ft | 17 kts | 270° |
| 2026-05-05 20:23 | 26.07560 | -80.16643 | 20 ft | 11 kts | 1° |
| 2026-05-05 20:23 | 26.07582 | -80.16643 | 20 ft | 0 kts | 0° |
| 2026-05-05 20:24 | 26.07589 | -80.16643 | 19 ft | 2 kts | 0° |
| 2026-05-05 20:25 | 26.07640 | -80.16643 | 18 ft | 11 kts | 0° |
| 2026-05-05 20:25 | 26.07692 | -80.16620 | 18 ft | 7 kts | 69° |
| 2026-05-05 20:25 | 26.07694 | -80.16455 | 22 ft | 56 kts | 90° |
| 2026-05-05 20:25 | 26.07692 | -80.15631 | 39 ft | 141 kts | 90° |
| 2026-05-05 20:26 | 26.07685 | -80.14484 | 408 ft | 164 kts | 90° |
| 2026-05-05 20:26 | 26.07664 | -80.13127 | 904 ft | 186 kts | 90° |
| 2026-05-05 20:26 | 26.07690 | -80.11607 | 1485 ft | 205 kts | 84° |
| 2026-05-05 20:26 | 26.07978 | -80.10032 | 2348 ft | 216 kts | 68° |
| 2026-05-05 20:27 | 26.08648 | -80.08470 | 3155 ft | 227 kts | 60° |
| 2026-05-05 20:27 | 26.09693 | -80.07118 | 3934 ft | 240 kts | 36° |
| 2026-05-05 20:27 | 26.11190 | -80.06246 | 4801 ft | 245 kts | 17° |
| 2026-05-05 20:27 | 26.12824 | -80.05599 | 5640 ft | 255 kts | 17° |
| 2026-05-05 20:28 | 26.14544 | -80.04956 | 6402 ft | 266 kts | 13° |
| 2026-05-05 20:28 | 26.16403 | -80.04962 | 7005 ft | 274 kts | 344° |
| 2026-05-05 20:28 | 26.18223 | -80.05634 | 7726 ft | 285 kts | 338° |
| 2026-05-05 20:28 | 26.20130 | -80.06407 | 8487 ft | 298 kts | 337° |
| 2026-05-05 20:29 | 26.21929 | -80.07584 | 9164 ft | 306 kts | 315° |
| 2026-05-05 20:29 | 26.23179 | -80.09508 | 9899 ft | 311 kts | 294° |
| 2026-05-05 20:29 | 26.24001 | -80.11757 | 10625 ft | 315 kts | 290° |
| 2026-05-05 20:29 | 26.24796 | -80.14056 | 11364 ft | 319 kts | 290° |
| 2026-05-05 20:30 | 26.25529 | -80.16404 | 12071 ft | 323 kts | 283° |
| 2026-05-05 20:30 | 26.25888 | -80.18881 | 12806 ft | 325 kts | 279° |
| 2026-05-05 20:30 | 26.26222 | -80.21379 | 13573 ft | 328 kts | 279° |
| 2026-05-05 20:30 | 26.26588 | -80.23896 | 14283 ft | 330 kts | 280° |
| 2026-05-05 20:31 | 26.26959 | -80.26425 | 14980 ft | 332 kts | 280° |
| 2026-05-05 20:31 | 26.27321 | -80.28972 | 15686 ft | 334 kts | 280° |
| 2026-05-05 20:31 | 26.27682 | -80.31536 | 16406 ft | 336 kts | 280° |
| 2026-05-05 20:31 | 26.28049 | -80.34114 | 17145 ft | 338 kts | 281° |
| 2026-05-05 20:32 | 26.28419 | -80.36707 | 17899 ft | 340 kts | 281° |
| 2026-05-05 20:32 | 26.28790 | -80.39325 | 18610 ft | 343 kts | 281° |
| 2026-05-05 20:32 | 26.29169 | -80.41989 | 19057 ft | 353 kts | 281° |
| 2026-05-05 20:32 | 26.29556 | -80.44727 | 19515 ft | 363 kts | 281° |
| 2026-05-05 20:33 | 26.29953 | -80.47539 | 19984 ft | 371 kts | 281° |
| 2026-05-05 20:33 | 26.30351 | -80.50370 | 20450 ft | 376 kts | 281° |
| 2026-05-05 20:33 | 26.30759 | -80.53265 | 20933 ft | 380 kts | 281° |
| 2026-05-05 20:33 | 26.31169 | -80.56185 | 21418 ft | 382 kts | 281° |
| 2026-05-05 20:34 | 26.31581 | -80.59117 | 21921 ft | 385 kts | 281° |
| 2026-05-05 20:34 | 26.31996 | -80.62079 | 22410 ft | 388 kts | 280° |
| 2026-05-05 20:34 | 26.32414 | -80.65058 | 22926 ft | 391 kts | 280° |
| 2026-05-05 20:34 | 26.32834 | -80.68062 | 23442 ft | 393 kts | 280° |
| 2026-05-05 20:35 | 26.33255 | -80.71082 | 23902 ft | 395 kts | 280° |
| 2026-05-05 20:35 | 26.33677 | -80.74117 | 24341 ft | 397 kts | 281° |
| 2026-05-05 20:35 | 26.34102 | -80.77166 | 24780 ft | 399 kts | 281° |
| 2026-05-05 20:35 | 26.34528 | -80.80237 | 25238 ft | 401 kts | 281° |
| 2026-05-05 20:36 | 26.34956 | -80.83321 | 25692 ft | 404 kts | 281° |
| 2026-05-05 20:36 | 26.35463 | -80.86405 | 26150 ft | 405 kts | 285° |
| 2026-05-05 20:36 | 26.36314 | -80.89399 | 26621 ft | 406 kts | 292° |
| 2026-05-05 20:36 | 26.37497 | -80.92259 | 27082 ft | 408 kts | 298° |
| 2026-05-05 20:37 | 26.39004 | -80.94946 | 27577 ft | 410 kts | 305° |
| 2026-05-05 20:37 | 26.40817 | -80.97412 | 28073 ft | 414 kts | 311° |
| 2026-05-05 20:37 | 26.42895 | -80.99655 | 28585 ft | 417 kts | 315° |
| 2026-05-05 20:37 | 26.45013 | -81.01871 | 29109 ft | 419 kts | 315° |
| 2026-05-05 20:38 | 26.47100 | -81.04082 | 29638 ft | 420 kts | 315° |
| 2026-05-05 20:38 | 26.49231 | -81.06329 | 30161 ft | 422 kts | 315° |
| 2026-05-05 20:38 | 26.51373 | -81.08572 | 30620 ft | 423 kts | 315° |
| 2026-05-05 20:38 | 26.53515 | -81.10822 | 31088 ft | 423 kts | 315° |
| 2026-05-05 20:39 | 26.55657 | -81.13085 | 31564 ft | 424 kts | 315° |
| 2026-05-05 20:39 | 26.57798 | -81.15348 | 32049 ft | 424 kts | 315° |
| 2026-05-05 20:39 | 26.59944 | -81.17609 | 32564 ft | 423 kts | 315° |
| 2026-05-05 20:39 | 26.62085 | -81.19867 | 33065 ft | 423 kts | 315° |
| 2026-05-05 20:40 | 26.64221 | -81.22125 | 33571 ft | 422 kts | 315° |
| 2026-05-05 20:40 | 26.66350 | -81.24384 | 34079 ft | 421 kts | 315° |
| 2026-05-05 20:40 | 26.68468 | -81.26641 | 34534 ft | 421 kts | 315° |
| 2026-05-05 20:40 | 26.70589 | -81.28896 | 34987 ft | 420 kts | 315° |
| 2026-05-05 20:41 | 26.72705 | -81.31145 | 35465 ft | 419 kts | 315° |
| 2026-05-05 20:41 | 26.74815 | -81.33389 | 35945 ft | 418 kts | 315° |
| 2026-05-05 20:41 | 26.76918 | -81.35630 | 36435 ft | 417 kts | 315° |
| 2026-05-05 20:41 | 26.79013 | -81.37862 | 36930 ft | 416 kts | 315° |
| 2026-05-05 20:42 | 26.81106 | -81.40093 | 37442 ft | 414 kts | 315° |
| 2026-05-05 20:42 | 26.83187 | -81.42311 | 37966 ft | 413 kts | 315° |
| 2026-05-05 20:42 | 26.85260 | -81.44524 | 38503 ft | 410 kts | 315° |
| 2026-05-05 20:42 | 26.87318 | -81.46722 | 38987 ft | 406 kts | 315° |
| 2026-05-05 20:43 | 26.89346 | -81.48887 | 39447 ft | 400 kts | 315° |
| 2026-05-05 20:43 | 26.91343 | -81.51022 | 39911 ft | 394 kts | 315° |
| 2026-05-05 20:43 | 26.93283 | -81.53096 | 40402 ft | 387 kts | 315° |
| 2026-05-05 20:43 | 26.95216 | -81.55163 | 40889 ft | 381 kts | 315° |
| 2026-05-05 20:44 | 26.97115 | -81.57196 | 41386 ft | 374 kts | 315° |
| 2026-05-05 20:44 | 26.98980 | -81.59193 | 41897 ft | 367 kts | 315° |
| 2026-05-05 20:44 | 27.00809 | -81.61154 | 42413 ft | 360 kts | 315° |
| 2026-05-05 20:44 | 27.02602 | -81.63075 | 42923 ft | 353 kts | 315° |
| 2026-05-05 20:45 | 27.06213 | -81.66952 | 43016 ft | 367 kts | 315° |
| 2026-05-05 20:45 | 27.09973 | -81.70988 | 43031 ft | 381 kts | 315° |
| 2026-05-05 20:46 | 27.13879 | -81.75186 | 43031 ft | 395 kts | 315° |
| 2026-05-05 20:46 | 27.17905 | -81.79517 | 43028 ft | 406 kts | 315° |
| 2026-05-05 20:47 | 27.22022 | -81.83950 | 43028 ft | 408 kts | 315° |
| 2026-05-05 20:47 | 27.25800 | -81.88677 | 43021 ft | 411 kts | 306° |
| 2026-05-05 20:48 | 27.28645 | -81.94300 | 43030 ft | 419 kts | 296° |
| 2026-05-05 20:48 | 27.30360 | -82.00570 | 43033 ft | 427 kts | 286° |
| 2026-05-05 20:49 | 27.31582 | -82.07110 | 43034 ft | 428 kts | 286° |
| 2026-05-05 20:49 | 27.32810 | -82.13659 | 43028 ft | 428 kts | 286° |
| 2026-05-05 20:50 | 27.34025 | -82.20207 | 43026 ft | 428 kts | 286° |
| 2026-05-05 20:50 | 27.35246 | -82.26761 | 43025 ft | 428 kts | 286° |
| 2026-05-05 20:51 | 27.36458 | -82.33314 | 43021 ft | 428 kts | 286° |
| 2026-05-05 20:51 | 27.37669 | -82.39864 | 43022 ft | 428 kts | 286° |
| 2026-05-05 20:52 | 27.38876 | -82.46418 | 43020 ft | 427 kts | 286° |
| 2026-05-05 20:52 | 27.40079 | -82.52967 | 43041 ft | 428 kts | 286° |
| 2026-05-05 20:53 | 27.41286 | -82.59523 | 43038 ft | 427 kts | 286° |
| 2026-05-05 20:53 | 27.42514 | -82.66027 | 43018 ft | 427 kts | 286° |
| 2026-05-05 20:54 | 27.43730 | -82.72578 | 43024 ft | 428 kts | 286° |
| 2026-05-05 20:54 | 27.44952 | -82.79130 | 43010 ft | 428 kts | 286° |
| 2026-05-05 20:55 | 27.46170 | -82.85702 | 43033 ft | 430 kts | 286° |
| 2026-05-05 20:55 | 27.47387 | -82.92284 | 43028 ft | 429 kts | 286° |
| 2026-05-05 20:56 | 27.48602 | -82.98870 | 43036 ft | 429 kts | 286° |
| 2026-05-05 20:56 | 27.49814 | -83.05456 | 43037 ft | 429 kts | 285° |
| 2026-05-05 20:57 | 27.51022 | -83.12045 | 43031 ft | 430 kts | 285° |
| 2026-05-05 20:57 | 27.52229 | -83.18641 | 43023 ft | 430 kts | 285° |
| 2026-05-05 20:58 | 27.53433 | -83.25242 | 43024 ft | 430 kts | 285° |
| 2026-05-05 20:58 | 27.54633 | -83.31842 | 43024 ft | 430 kts | 285° |
| 2026-05-05 20:59 | 27.55831 | -83.38449 | 43031 ft | 430 kts | 285° |
| 2026-05-05 20:59 | 27.57026 | -83.45054 | 43034 ft | 430 kts | 285° |
| 2026-05-05 21:00 | 27.58217 | -83.51660 | 43026 ft | 430 kts | 285° |
| 2026-05-05 21:00 | 27.59405 | -83.58269 | 43033 ft | 430 kts | 285° |
| 2026-05-05 21:01 | 27.60590 | -83.64873 | 43031 ft | 430 kts | 285° |
| 2026-05-05 21:01 | 27.61765 | -83.71446 | 43037 ft | 430 kts | 285° |
| 2026-05-05 21:02 | 27.62944 | -83.78061 | 43037 ft | 430 kts | 285° |
| 2026-05-05 21:02 | 27.64120 | -83.84677 | 43031 ft | 430 kts | 285° |
| 2026-05-05 21:03 | 27.65294 | -83.91298 | 43027 ft | 430 kts | 285° |
| 2026-05-05 21:03 | 27.66462 | -83.97909 | 43022 ft | 430 kts | 285° |
| 2026-05-05 21:04 | 27.67628 | -84.04524 | 43023 ft | 430 kts | 285° |
| 2026-05-05 21:04 | 27.68791 | -84.11141 | 43028 ft | 430 kts | 285° |
| 2026-05-05 21:05 | 27.69949 | -84.17754 | 43023 ft | 430 kts | 285° |
| 2026-05-05 21:05 | 27.71106 | -84.24376 | 43028 ft | 430 kts | 285° |
| 2026-05-05 21:06 | 27.72064 | -84.29873 | 43012 ft | 430 kts | 285° |
| 2026-05-05 21:06 | 27.73216 | -84.36506 | 43033 ft | 431 kts | 284° |
| 2026-05-05 21:07 | 27.74366 | -84.43144 | 43033 ft | 431 kts | 284° |
| 2026-05-05 21:07 | 27.75513 | -84.49785 | 43035 ft | 431 kts | 284° |
| 2026-05-05 21:08 | 27.76658 | -84.56432 | 43033 ft | 431 kts | 284° |
| 2026-05-05 21:08 | 27.77798 | -84.63072 | 43033 ft | 431 kts | 284° |
| 2026-05-05 21:09 | 27.78927 | -84.69669 | 43031 ft | 431 kts | 284° |
| 2026-05-05 21:09 | 27.80062 | -84.76319 | 43032 ft | 431 kts | 284° |
| 2026-05-05 21:10 | 27.81194 | -84.82973 | 43032 ft | 431 kts | 284° |
| 2026-05-05 21:10 | 27.82325 | -84.89633 | 43033 ft | 431 kts | 284° |
| 2026-05-05 21:11 | 27.83451 | -84.96283 | 43030 ft | 431 kts | 284° |
| 2026-05-05 21:11 | 27.84575 | -85.02942 | 43030 ft | 431 kts | 284° |
| 2026-05-05 21:12 | 27.85696 | -85.09602 | 43027 ft | 432 kts | 284° |
| 2026-05-05 21:12 | 27.86816 | -85.16275 | 43028 ft | 432 kts | 284° |
| 2026-05-05 21:13 | 27.87931 | -85.22943 | 43029 ft | 432 kts | 284° |
| 2026-05-05 21:13 | 27.89505 | -85.29402 | 43024 ft | 428 kts | 291° |
| 2026-05-05 21:14 | 27.91440 | -85.35785 | 43030 ft | 429 kts | 291° |
| 2026-05-05 21:14 | 27.93369 | -85.42164 | 43034 ft | 429 kts | 291° |
| 2026-05-05 21:15 | 27.95299 | -85.48545 | 43026 ft | 428 kts | 291° |
| 2026-05-05 21:15 | 27.97221 | -85.54922 | 43026 ft | 428 kts | 291° |
| 2026-05-05 21:16 | 27.99143 | -85.61305 | 43024 ft | 429 kts | 291° |
| 2026-05-05 21:16 | 28.01058 | -85.67683 | 43031 ft | 425 kts | 290° |
| 2026-05-05 21:17 | 28.02962 | -85.74029 | 43030 ft | 426 kts | 290° |
| 2026-05-05 21:17 | 28.04863 | -85.80384 | 43030 ft | 426 kts | 290° |
| 2026-05-05 21:18 | 28.06751 | -85.86703 | 43031 ft | 426 kts | 290° |
| 2026-05-05 21:18 | 28.08648 | -85.93067 | 43026 ft | 426 kts | 290° |
| 2026-05-05 21:19 | 28.10544 | -85.99438 | 43026 ft | 426 kts | 290° |
| 2026-05-05 21:19 | 28.12435 | -86.05801 | 43026 ft | 426 kts | 290° |
| 2026-05-05 21:20 | 28.14323 | -86.12172 | 43028 ft | 427 kts | 290° |
| 2026-05-05 21:20 | 28.16210 | -86.18548 | 43019 ft | 427 kts | 290° |
| 2026-05-05 21:21 | 28.18097 | -86.24937 | 43013 ft | 428 kts | 290° |
| 2026-05-05 21:21 | 28.19984 | -86.31340 | 43014 ft | 428 kts | 290° |
| 2026-05-05 21:22 | 28.21866 | -86.37737 | 43014 ft | 428 kts | 290° |
| 2026-05-05 21:22 | 28.23748 | -86.44147 | 43014 ft | 428 kts | 290° |
| 2026-05-05 21:23 | 28.25625 | -86.50553 | 43014 ft | 428 kts | 290° |
| 2026-05-05 21:23 | 28.27498 | -86.56957 | 42996 ft | 428 kts | 289° |
| 2026-05-05 21:24 | 28.29365 | -86.63351 | 43014 ft | 431 kts | 289° |
| 2026-05-05 21:24 | 28.31245 | -86.69807 | 43013 ft | 431 kts | 289° |
| 2026-05-05 21:25 | 28.33136 | -86.76265 | 43034 ft | 431 kts | 289° |
| 2026-05-05 21:25 | 28.35025 | -86.82705 | 43014 ft | 429 kts | 289° |
| 2026-05-05 21:26 | 28.36903 | -86.89138 | 43015 ft | 430 kts | 289° |
| 2026-05-05 21:26 | 28.38784 | -86.95582 | 43011 ft | 430 kts | 289° |
| 2026-05-05 21:27 | 28.40663 | -87.02039 | 43011 ft | 431 kts | 289° |
| 2026-05-05 21:27 | 28.42540 | -87.08502 | 43011 ft | 431 kts | 289° |
| 2026-05-05 21:28 | 28.44415 | -87.14967 | 43007 ft | 431 kts | 289° |
| 2026-05-05 21:28 | 28.46286 | -87.21434 | 43007 ft | 431 kts | 289° |
| 2026-05-05 21:29 | 28.48153 | -87.27899 | 43005 ft | 431 kts | 289° |
| 2026-05-05 21:29 | 28.50018 | -87.34371 | 43003 ft | 431 kts | 289° |
| 2026-05-05 21:30 | 28.51885 | -87.40860 | 43003 ft | 432 kts | 289° |
| 2026-05-05 21:30 | 28.53738 | -87.47315 | 43004 ft | 432 kts | 289° |
| 2026-05-05 21:31 | 28.55600 | -87.53815 | 43006 ft | 432 kts | 289° |
| 2026-05-05 21:31 | 28.57458 | -87.60315 | 43007 ft | 432 kts | 289° |
| 2026-05-05 21:32 | 28.59316 | -87.66828 | 43005 ft | 432 kts | 289° |
| 2026-05-05 21:32 | 28.61168 | -87.73333 | 42991 ft | 432 kts | 288° |
| 2026-05-05 21:33 | 28.63020 | -87.79846 | 42991 ft | 432 kts | 288° |
| 2026-05-05 21:33 | 28.64856 | -87.86323 | 43025 ft | 432 kts | 288° |
| 2026-05-05 21:34 | 28.66685 | -87.92787 | 42999 ft | 429 kts | 288° |
| 2026-05-05 21:34 | 28.68513 | -87.99256 | 42999 ft | 429 kts | 288° |
| 2026-05-05 21:35 | 28.70337 | -88.05729 | 42993 ft | 429 kts | 288° |
| 2026-05-05 21:35 | 28.72161 | -88.12213 | 42986 ft | 430 kts | 288° |
| 2026-05-05 21:36 | 28.73980 | -88.18695 | 42987 ft | 429 kts | 288° |
| 2026-05-05 21:36 | 28.75786 | -88.25140 | 42987 ft | 429 kts | 288° |
| 2026-05-05 21:37 | 28.77597 | -88.31621 | 42987 ft | 429 kts | 288° |
| 2026-05-05 21:37 | 28.79406 | -88.38107 | 42981 ft | 429 kts | 288° |
| 2026-05-05 21:38 | 28.81214 | -88.44600 | 42987 ft | 429 kts | 288° |
| 2026-05-05 21:38 | 28.83019 | -88.51097 | 42989 ft | 431 kts | 288° |
| 2026-05-05 21:39 | 28.84829 | -88.57625 | 42986 ft | 431 kts | 288° |
| 2026-05-05 21:39 | 28.86634 | -88.64153 | 42987 ft | 431 kts | 288° |
| 2026-05-05 21:40 | 28.88410 | -88.70685 | 42983 ft | 431 kts | 285° |
| 2026-05-05 21:40 | 28.89819 | -88.77340 | 42984 ft | 432 kts | 284° |
| 2026-05-05 21:41 | 28.91257 | -88.83998 | 42984 ft | 432 kts | 284° |
| 2026-05-05 21:41 | 28.92666 | -88.90667 | 42982 ft | 433 kts | 284° |
| 2026-05-05 21:42 | 28.94088 | -88.97343 | 42980 ft | 433 kts | 284° |
| 2026-05-05 21:42 | 28.95499 | -89.04022 | 43007 ft | 432 kts | 284° |
| 2026-05-05 21:43 | 28.96902 | -89.10659 | 42980 ft | 429 kts | 284° |
| 2026-05-05 21:43 | 28.98290 | -89.17255 | 42980 ft | 430 kts | 284° |
| 2026-05-05 21:44 | 28.99685 | -89.23895 | 42958 ft | 430 kts | 283° |
| 2026-05-05 21:44 | 29.01081 | -89.30557 | 42975 ft | 432 kts | 283° |
| 2026-05-05 21:45 | 29.02477 | -89.37238 | 42979 ft | 432 kts | 283° |
| 2026-05-05 21:45 | 29.03871 | -89.43926 | 42976 ft | 432 kts | 283° |
| 2026-05-05 21:46 | 29.05260 | -89.50610 | 42971 ft | 432 kts | 283° |
| 2026-05-05 21:46 | 29.06647 | -89.57302 | 42971 ft | 432 kts | 283° |
| 2026-05-05 21:47 | 29.08030 | -89.63988 | 42967 ft | 432 kts | 283° |
| 2026-05-05 21:47 | 29.09409 | -89.70680 | 42968 ft | 432 kts | 283° |
| 2026-05-05 21:48 | 29.10777 | -89.77332 | 42966 ft | 432 kts | 283° |
| 2026-05-05 21:48 | 29.12151 | -89.84027 | 42966 ft | 432 kts | 283° |
| 2026-05-05 21:49 | 29.13520 | -89.90723 | 42972 ft | 432 kts | 283° |
| 2026-05-05 21:49 | 29.14886 | -89.97420 | 42972 ft | 432 kts | 283° |
| 2026-05-05 21:50 | 29.16251 | -90.04127 | 42965 ft | 434 kts | 283° |
| 2026-05-05 21:50 | 29.17466 | -90.10883 | 42968 ft | 434 kts | 277° |
| 2026-05-05 21:51 | 29.17786 | -90.17783 | 42975 ft | 434 kts | 274° |
| 2026-05-05 21:51 | 29.18058 | -90.24688 | 42983 ft | 434 kts | 274° |
| 2026-05-05 21:52 | 29.18423 | -90.35056 | 42979 ft | 435 kts | 274° |
| 2026-05-05 21:53 | 29.18671 | -90.41967 | 42974 ft | 435 kts | 273° |
| 2026-05-05 21:53 | 29.18910 | -90.48875 | 42968 ft | 435 kts | 273° |
| 2026-05-05 21:54 | 29.19148 | -90.55788 | 42957 ft | 435 kts | 273° |
| 2026-05-05 21:54 | 29.19380 | -90.62657 | 42958 ft | 435 kts | 273° |
| 2026-05-05 21:55 | 29.19611 | -90.69567 | 42958 ft | 435 kts | 273° |
| 2026-05-05 21:55 | 29.19838 | -90.76482 | 42954 ft | 435 kts | 273° |
| 2026-05-05 21:56 | 29.20061 | -90.83403 | 42956 ft | 435 kts | 273° |
| 2026-05-05 21:56 | 29.20244 | -90.89158 | 42952 ft | 435 kts | 273° |
| 2026-05-05 21:57 | 29.20461 | -90.96077 | 42952 ft | 435 kts | 273° |
| 2026-05-05 21:57 | 29.20675 | -91.03000 | 42952 ft | 435 kts | 273° |
| 2026-05-05 21:58 | 29.20884 | -91.09919 | 42947 ft | 435 kts | 273° |
| 2026-05-05 21:58 | 29.21091 | -91.16847 | 42941 ft | 436 kts | 272° |
| 2026-05-05 21:59 | 29.21294 | -91.23786 | 42939 ft | 436 kts | 272° |
| 2026-05-05 21:59 | 29.21494 | -91.30729 | 42940 ft | 436 kts | 272° |
| 2026-05-05 22:00 | 29.21690 | -91.37672 | 42937 ft | 436 kts | 272° |
| 2026-05-05 22:00 | 29.21883 | -91.44612 | 42937 ft | 436 kts | 272° |
| 2026-05-05 22:01 | 29.22070 | -91.51506 | 42937 ft | 436 kts | 272° |
| 2026-05-05 22:01 | 29.22256 | -91.58467 | 42929 ft | 438 kts | 272° |
| 2026-05-05 22:02 | 29.22438 | -91.65427 | 42931 ft | 437 kts | 272° |
| 2026-05-05 22:02 | 29.22617 | -91.72396 | 42924 ft | 437 kts | 272° |
| 2026-05-05 22:03 | 29.22793 | -91.79358 | 42924 ft | 437 kts | 272° |
| 2026-05-05 22:03 | 29.22964 | -91.86319 | 42919 ft | 437 kts | 272° |
| 2026-05-05 22:04 | 29.23132 | -91.93282 | 42916 ft | 438 kts | 272° |
| 2026-05-05 22:04 | 29.23296 | -92.00251 | 42911 ft | 438 kts | 272° |
| 2026-05-05 22:05 | 29.23457 | -92.07207 | 42920 ft | 434 kts | 272° |
| 2026-05-05 22:05 | 29.23613 | -92.14122 | 42920 ft | 435 kts | 271° |
| 2026-05-05 22:06 | 29.23765 | -92.21048 | 42917 ft | 435 kts | 271° |
| 2026-05-05 22:06 | 29.23915 | -92.27975 | 42918 ft | 435 kts | 271° |
| 2026-05-05 22:07 | 29.24060 | -92.34912 | 42909 ft | 436 kts | 271° |
| 2026-05-05 22:07 | 29.24203 | -92.41860 | 42909 ft | 436 kts | 271° |
| 2026-05-05 22:08 | 29.24454 | -92.48743 | 42905 ft | 436 kts | 275° |
| 2026-05-05 22:08 | 29.25000 | -92.55668 | 42913 ft | 436 kts | 274° |
| 2026-05-05 22:09 | 29.25523 | -92.62590 | 42910 ft | 436 kts | 275° |
| 2026-05-05 22:09 | 29.26058 | -92.69510 | 42910 ft | 436 kts | 274° |
| 2026-05-05 22:10 | 29.26579 | -92.76429 | 42905 ft | 436 kts | 274° |
| 2026-05-05 22:10 | 29.27102 | -92.83347 | 42911 ft | 436 kts | 274° |
| 2026-05-05 22:11 | 29.27619 | -92.90271 | 42906 ft | 436 kts | 274° |
| 2026-05-05 22:11 | 29.28133 | -92.97192 | 42906 ft | 436 kts | 274° |
| 2026-05-05 22:12 | 29.28647 | -93.04113 | 42906 ft | 436 kts | 274° |
| 2026-05-05 22:12 | 29.29199 | -93.11044 | 42889 ft | 438 kts | 275° |
| 2026-05-05 22:13 | 29.29731 | -93.17985 | 42889 ft | 437 kts | 274° |
| 2026-05-05 22:13 | 29.30266 | -93.24924 | 42887 ft | 437 kts | 274° |
| 2026-05-05 22:14 | 29.30791 | -93.31818 | 42884 ft | 437 kts | 274° |
| 2026-05-05 22:14 | 29.31317 | -93.38758 | 42884 ft | 437 kts | 274° |
| 2026-05-05 22:15 | 29.31840 | -93.45711 | 42882 ft | 437 kts | 274° |
| 2026-05-05 22:15 | 29.32360 | -93.52661 | 42879 ft | 437 kts | 274° |
| 2026-05-05 22:16 | 29.32875 | -93.59603 | 42888 ft | 437 kts | 274° |
| 2026-05-05 22:16 | 29.33386 | -93.66542 | 42882 ft | 437 kts | 274° |
| 2026-05-05 22:17 | 29.33894 | -93.73490 | 42880 ft | 437 kts | 274° |
| 2026-05-05 22:17 | 29.34398 | -93.80433 | 42884 ft | 437 kts | 274° |
| 2026-05-05 22:18 | 29.34899 | -93.87377 | 42885 ft | 437 kts | 274° |
| 2026-05-05 22:18 | 29.35296 | -93.94276 | 42885 ft | 437 kts | 273° |
| 2026-05-05 22:18 | 29.35490 | -93.97744 | 42413 ft | 430 kts | 273° |
| 2026-05-05 22:19 | 29.35679 | -94.01121 | 41630 ft | 420 kts | 273° |
| 2026-05-05 22:19 | 29.35858 | -94.04428 | 40840 ft | 411 kts | 273° |
| 2026-05-05 22:19 | 29.36032 | -94.07667 | 40080 ft | 403 kts | 274° |
| 2026-05-05 22:19 | 29.36204 | -94.10841 | 39354 ft | 396 kts | 274° |
| 2026-05-05 22:20 | 29.36374 | -94.13969 | 38646 ft | 390 kts | 274° |
| 2026-05-05 22:20 | 29.36539 | -94.17051 | 37853 ft | 385 kts | 274° |
| 2026-05-05 22:20 | 29.36701 | -94.20088 | 37075 ft | 379 kts | 273° |
| 2026-05-05 22:20 | 29.36861 | -94.23080 | 36317 ft | 372 kts | 273° |
| 2026-05-05 22:21 | 29.37021 | -94.26017 | 35589 ft | 366 kts | 273° |
| 2026-05-05 22:21 | 29.37212 | -94.28905 | 34882 ft | 360 kts | 274° |
| 2026-05-05 22:21 | 29.37411 | -94.31748 | 34192 ft | 355 kts | 273° |
| 2026-05-05 22:21 | 29.37589 | -94.34552 | 33463 ft | 350 kts | 273° |
| 2026-05-05 22:22 | 29.37765 | -94.37317 | 32574 ft | 347 kts | 274° |
| 2026-05-05 22:22 | 29.38053 | -94.40052 | 31598 ft | 344 kts | 275° |
| 2026-05-05 22:22 | 29.38339 | -94.42726 | 30671 ft | 341 kts | 275° |
| 2026-05-05 22:22 | 29.38619 | -94.45418 | 29728 ft | 338 kts | 275° |
| 2026-05-05 22:23 | 29.38893 | -94.48084 | 28663 ft | 335 kts | 275° |
| 2026-05-05 22:23 | 29.39168 | -94.50724 | 27660 ft | 332 kts | 276° |
| 2026-05-05 22:23 | 29.39441 | -94.53340 | 26681 ft | 329 kts | 276° |
| 2026-05-05 22:23 | 29.39710 | -94.55935 | 25733 ft | 326 kts | 276° |
| 2026-05-05 22:24 | 29.39976 | -94.58505 | 24816 ft | 323 kts | 276° |
| 2026-05-05 22:24 | 29.40239 | -94.61055 | 23930 ft | 320 kts | 276° |
| 2026-05-05 22:24 | 29.40500 | -94.63580 | 22988 ft | 318 kts | 276° |
| 2026-05-05 22:24 | 29.40819 | -94.66050 | 21965 ft | 301 kts | 282° |
| 2026-05-05 22:25 | 29.41476 | -94.68204 | 20866 ft | 275 kts | 290° |
| 2026-05-05 22:25 | 29.42222 | -94.70177 | 19692 ft | 266 kts | 290° |
| 2026-05-05 22:25 | 29.42938 | -94.72124 | 18555 ft | 264 kts | 289° |
| 2026-05-05 22:25 | 29.43647 | -94.74066 | 17330 ft | 263 kts | 290° |
| 2026-05-05 22:26 | 29.44357 | -94.75993 | 16115 ft | 261 kts | 290° |
| 2026-05-05 22:26 | 29.45061 | -94.77899 | 14934 ft | 258 kts | 290° |
| 2026-05-05 22:26 | 29.45757 | -94.79788 | 13812 ft | 256 kts | 290° |
| 2026-05-05 22:26 | 29.46447 | -94.81663 | 12588 ft | 255 kts | 290° |
| 2026-05-05 22:27 | 29.47137 | -94.83538 | 11394 ft | 255 kts | 290° |
| 2026-05-05 22:27 | 29.47826 | -94.85413 | 10244 ft | 255 kts | 290° |
| 2026-05-05 22:27 | 29.48517 | -94.87289 | 9274 ft | 251 kts | 289° |
| 2026-05-05 22:27 | 29.49170 | -94.89067 | 8860 ft | 239 kts | 288° |
| 2026-05-05 22:28 | 29.49818 | -94.90880 | 8885 ft | 250 kts | 288° |
| 2026-05-05 22:28 | 29.50480 | -94.92721 | 8636 ft | 255 kts | 288° |
| 2026-05-05 22:28 | 29.51196 | -94.94714 | 8162 ft | 277 kts | 288° |
| 2026-05-05 22:28 | 29.51943 | -94.96763 | 7696 ft | 279 kts | 289° |
| 2026-05-05 22:29 | 29.52687 | -94.98810 | 7231 ft | 277 kts | 289° |
| 2026-05-05 22:29 | 29.53421 | -95.00846 | 6753 ft | 274 kts | 288° |
| 2026-05-05 22:29 | 29.54144 | -95.02852 | 6293 ft | 271 kts | 288° |
| 2026-05-05 22:29 | 29.54861 | -95.04845 | 5850 ft | 269 kts | 289° |
| 2026-05-05 22:30 | 29.55559 | -95.06766 | 5846 ft | 265 kts | 289° |
| 2026-05-05 22:30 | 29.56275 | -95.08735 | 5837 ft | 268 kts | 288° |
| 2026-05-05 22:30 | 29.56985 | -95.10715 | 5845 ft | 269 kts | 288° |
| 2026-05-05 22:30 | 29.57688 | -95.12707 | 5848 ft | 272 kts | 288° |
| 2026-05-05 22:31 | 29.58313 | -95.14729 | 5825 ft | 268 kts | 280° |
| 2026-05-05 22:31 | 29.58686 | -95.16816 | 5880 ft | 264 kts | 276° |
| 2026-05-05 22:31 | 29.59039 | -95.18906 | 5980 ft | 267 kts | 277° |
| 2026-05-05 22:31 | 29.59420 | -95.20999 | 6031 ft | 269 kts | 277° |
| 2026-05-05 22:32 | 29.59753 | -95.23133 | 6007 ft | 269 kts | 277° |
| 2026-05-05 22:32 | 29.60144 | -95.25228 | 6006 ft | 268 kts | 279° |
| 2026-05-05 22:32 | 29.60546 | -95.27309 | 6006 ft | 267 kts | 278° |
| 2026-05-05 22:32 | 29.60909 | -95.29403 | 5995 ft | 268 kts | 277° |
| 2026-05-05 22:33 | 29.61336 | -95.31483 | 5980 ft | 269 kts | 281° |
| 2026-05-05 22:33 | 29.61766 | -95.33571 | 6011 ft | 269 kts | 277° |
| 2026-05-05 22:33 | 29.62163 | -95.35682 | 6012 ft | 271 kts | 278° |
| 2026-05-05 22:33 | 29.62613 | -95.37769 | 6004 ft | 270 kts | 283° |
| 2026-05-05 22:34 | 29.63579 | -95.39640 | 5983 ft | 277 kts | 306° |
| 2026-05-05 22:34 | 29.64906 | -95.41225 | 6015 ft | 280 kts | 309° |
| 2026-05-05 22:34 | 29.66301 | -95.42840 | 6018 ft | 283 kts | 310° |
| 2026-05-05 22:34 | 29.67717 | -95.44413 | 5783 ft | 285 kts | 312° |
| 2026-05-05 22:35 | 29.69143 | -95.45962 | 5322 ft | 286 kts | 312° |
| 2026-05-05 22:35 | 29.70600 | -95.47521 | 4839 ft | 286 kts | 313° |
| 2026-05-05 22:35 | 29.72058 | -95.49088 | 4345 ft | 287 kts | 313° |
| 2026-05-05 22:35 | 29.73513 | -95.50662 | 3850 ft | 287 kts | 313° |
| 2026-05-05 22:36 | 29.74969 | -95.52234 | 3369 ft | 285 kts | 313° |
| 2026-05-05 22:36 | 29.76551 | -95.53541 | 2791 ft | 283 kts | 334° |
| 2026-05-05 22:36 | 29.78482 | -95.53771 | 2100 ft | 278 kts | 9° |
| 2026-05-05 22:36 | 29.80060 | -95.52769 | 1893 ft | 244 kts | 46° |
| 2026-05-05 22:37 | 29.81102 | -95.51433 | 1998 ft | 206 kts | 53° |
| 2026-05-05 22:37 | 29.81543 | -95.50003 | 1837 ft | 182 kts | 100° |
| 2026-05-05 22:37 | 29.81087 | -95.48778 | 1856 ft | 157 kts | 125° |
| 2026-05-05 22:37 | 29.80714 | -95.47635 | 1959 ft | 149 kts | 111° |
| 2026-05-05 22:38 | 29.80286 | -95.46620 | 1988 ft | 138 kts | 134° |
| 2026-05-05 22:38 | 29.79594 | -95.45811 | 2014 ft | 147 kts | 140° |
| 2026-05-05 22:38 | 29.78849 | -95.44933 | 2019 ft | 157 kts | 138° |
| 2026-05-05 22:38 | 29.78082 | -95.44014 | 2014 ft | 161 kts | 138° |
| 2026-05-05 22:39 | 29.77298 | -95.43078 | 2013 ft | 164 kts | 139° |
| 2026-05-05 22:39 | 29.76516 | -95.42144 | 2011 ft | 165 kts | 139° |
| 2026-05-05 22:39 | 29.75718 | -95.41193 | 2006 ft | 166 kts | 140° |
| 2026-05-05 22:39 | 29.74921 | -95.40242 | 2003 ft | 164 kts | 140° |
| 2026-05-05 22:40 | 29.74140 | -95.39311 | 1987 ft | 157 kts | 140° |
| 2026-05-05 22:40 | 29.73446 | -95.38474 | 1977 ft | 134 kts | 141° |
| 2026-05-05 22:40 | 29.72817 | -95.37728 | 1982 ft | 127 kts | 142° |
| 2026-05-05 22:40 | 29.72206 | -95.37005 | 1992 ft | 125 kts | 142° |
| 2026-05-05 22:41 | 29.71602 | -95.36288 | 1966 ft | 126 kts | 142° |
| 2026-05-05 22:41 | 29.70981 | -95.35553 | 1759 ft | 128 kts | 141° |
| 2026-05-05 22:41 | 29.70369 | -95.34824 | 1590 ft | 125 kts | 140° |
| 2026-05-05 22:41 | 29.69767 | -95.34108 | 1418 ft | 124 kts | 140° |
| 2026-05-05 22:42 | 29.69172 | -95.33400 | 1255 ft | 123 kts | 140° |
| 2026-05-05 22:42 | 29.68580 | -95.32701 | 1084 ft | 121 kts | 142° |
| 2026-05-05 22:42 | 29.67999 | -95.32007 | 927 ft | 119 kts | 141° |
| 2026-05-05 22:42 | 29.67431 | -95.31331 | 788 ft | 117 kts | 145° |
| 2026-05-05 22:43 | 29.66848 | -95.30643 | 623 ft | 121 kts | 144° |
| 2026-05-05 22:43 | 29.66265 | -95.29953 | 436 ft | 120 kts | 139° |
| 2026-05-05 22:43 | 29.65706 | -95.29268 | 271 ft | 122 kts | 135° |
| 2026-05-05 22:43 | 29.65113 | -95.28578 | 104 ft | 120 kts | 135° |
| 2026-05-05 22:44 | 29.64569 | -95.27932 | 50 ft | 102 kts | 134° |
| 2026-05-05 22:44 | 29.64218 | -95.27512 | 48 ft | 43 kts | 134° |
| 2026-05-05 22:44 | 29.64037 | -95.27297 | 47 ft | 34 kts | 134° |
| 2026-05-05 22:44 | 29.63931 | -95.27175 | 49 ft | 9 kts | 140° |
| 2026-05-05 22:45 | 29.63866 | -95.27158 | 48 ft | 13 kts | 179° |
| 2026-05-05 22:45 | 29.63806 | -95.27173 | 48 ft | 4 kts | 268° |
| 2026-05-05 22:45 | 29.63811 | -95.27197 | 48 ft | 5 kts | 284° |
| 2026-05-05 22:45 | 29.63846 | -95.27252 | 48 ft | 9 kts | 314° |
| 2026-05-05 22:46 | 29.63889 | -95.27303 | 49 ft | 9 kts | 314° |
| 2026-05-05 22:46 | 29.63937 | -95.27359 | 46 ft | 11 kts | 314° |
| 2026-05-05 22:46 | 29.63974 | -95.27403 | 49 ft | 12 kts | 314° |
| 2026-05-05 22:46 | 29.64035 | -95.27475 | 48 ft | 13 kts | 314° |
| 2026-05-05 22:47 | 29.64091 | -95.27551 | 49 ft | 9 kts | 276° |
| 2026-05-05 22:47 | 29.64064 | -95.27600 | 47 ft | 8 kts | 226° |
| 2026-05-05 22:47 | 29.64002 | -95.27630 | 49 ft | 10 kts | 176° |
| 2026-05-05 22:47 | 29.63933 | -95.27632 | 49 ft | 10 kts | 179° |
| 2026-05-05 22:48 | 29.63844 | -95.27630 | 49 ft | 15 kts | 179° |
| 2026-05-05 22:48 | 29.63746 | -95.27628 | 49 ft | 11 kts | 179° |
| 2026-05-05 22:48 | 29.63691 | -95.27606 | 48 ft | 7 kts | 103° |
| 2026-05-05 22:48 | 29.63689 | -95.27564 | 48 ft | 0 kts | 90° |